createdAt,value
2018-03-24T00:02:01.545Z,2.00
2018-03-24T00:04:29.146Z,2.00
2018-03-24T00:06:56.714Z,2.00
2018-03-24T00:09:24.408Z,1.90
2018-03-24T00:11:51.985Z,2.00
2018-03-24T00:14:19.581Z,1.90
2018-03-24T00:16:47.181Z,1.90
2018-03-24T00:19:14.764Z,1.90
2018-03-24T00:21:42.367Z,1.90
2018-03-24T00:24:09.942Z,1.80
2018-03-24T00:26:37.547Z,1.80
2018-03-24T00:29:05.134Z,1.70
2018-03-24T00:31:32.734Z,1.70
2018-03-24T00:34:00.306Z,1.80
2018-03-24T00:36:27.922Z,1.80
2018-03-24T00:38:55.494Z,1.80
2018-03-24T00:41:23.090Z,1.80
2018-03-24T00:43:51.433Z,1.80
2018-03-24T00:46:19.029Z,1.70
2018-03-24T00:48:46.635Z,1.70
2018-03-24T00:51:14.215Z,1.70
2018-03-24T00:53:41.819Z,1.70
2018-03-24T00:56:09.395Z,1.70
2018-03-24T00:58:36.994Z,1.70
2018-03-24T01:01:04.586Z,1.80
2018-03-24T01:03:32.190Z,1.80
2018-03-24T01:05:59.763Z,1.80
2018-03-24T01:08:27.340Z,1.80
2018-03-24T01:10:55.242Z,1.80
2018-03-24T01:13:22.822Z,1.80
2018-03-24T01:15:50.426Z,1.80
2018-03-24T01:18:18.771Z,1.70
2018-03-24T01:20:46.375Z,1.70
2018-03-24T01:23:13.946Z,1.70
2018-03-24T01:25:41.546Z,1.70
2018-03-24T01:28:09.122Z,1.70
2018-03-24T01:30:36.723Z,1.70
2018-03-24T01:33:05.057Z,1.70
2018-03-24T01:35:32.664Z,1.70
2018-03-24T01:38:00.275Z,1.70
2018-03-24T01:40:27.846Z,1.70
2018-03-24T01:42:56.210Z,1.70
2018-03-24T01:45:24.546Z,1.70
2018-03-24T01:47:52.910Z,1.70
2018-03-24T01:50:20.486Z,1.60
2018-03-24T01:52:48.086Z,1.60
2018-03-24T01:55:15.663Z,1.60
2018-03-24T01:57:43.257Z,1.60
2018-03-24T02:00:10.829Z,1.60
2018-03-24T02:02:38.426Z,1.60
2018-03-24T02:05:06.024Z,1.60
2018-03-24T02:07:33.624Z,1.50
2018-03-24T02:10:01.226Z,1.60
2018-03-24T02:12:29.562Z,1.50
2018-03-24T02:14:57.162Z,1.50
2018-03-24T02:17:24.726Z,1.50
2018-03-24T02:19:52.350Z,1.50
2018-03-24T02:22:19.930Z,1.40
2018-03-24T02:24:53.066Z,1.30
2018-03-24T02:27:20.637Z,1.30
2018-03-24T02:29:48.239Z,1.30
2018-03-24T02:32:15.811Z,1.20
2018-03-24T02:34:44.188Z,1.10
2018-03-24T02:37:11.805Z,1.10
2018-03-24T02:39:39.375Z,1.10
2018-03-24T02:42:06.982Z,1.00
2018-03-24T02:44:34.578Z,1.00
2018-03-24T02:47:02.961Z,1.00
2018-03-24T02:49:30.529Z,0.90
2018-03-24T02:51:58.130Z,0.90
2018-03-24T02:54:25.758Z,0.90
2018-03-24T02:56:53.334Z,0.90
2018-03-24T02:59:21.698Z,0.80
2018-03-24T03:01:49.288Z,0.80
2018-03-24T03:04:16.895Z,0.80
2018-03-24T03:06:45.244Z,0.80
2018-03-24T03:09:12.853Z,0.80
2018-03-24T03:11:40.427Z,0.70
2018-03-24T03:14:08.046Z,0.70
2018-03-24T03:16:35.622Z,0.60
2018-03-24T03:19:03.242Z,0.60
2018-03-24T03:21:51.494Z,0.40
2018-03-24T03:24:19.098Z,0.40
2018-03-24T03:26:47.474Z,0.40
2018-03-24T03:29:15.058Z,0.40
2018-03-24T03:31:44.524Z,0.30
2018-03-24T03:34:12.101Z,0.30
2018-03-24T03:36:40.469Z,0.30
2018-03-24T03:39:08.901Z,0.20
2018-03-24T03:41:37.270Z,0.20
2018-03-24T03:44:04.878Z,0.20
2018-03-24T03:46:32.453Z,0.10
2018-03-24T03:49:00.058Z,0.10
2018-03-24T03:51:27.639Z,0.10
2018-03-24T03:53:56.007Z,0.00
2018-03-24T03:56:23.648Z,0.00
2018-03-24T03:58:51.228Z,0.00
2018-03-24T04:01:19.601Z,-0.10
2018-03-24T04:03:47.186Z,-0.10
2018-03-24T04:06:14.826Z,-0.10
2018-03-24T04:08:42.407Z,-0.10
2018-03-24T04:11:10.014Z,-0.10
2018-03-24T04:13:37.622Z,-0.10
2018-03-24T04:16:05.210Z,-0.10
2018-03-24T04:18:32.814Z,-0.10
2018-03-24T04:21:01.165Z,-0.20
2018-03-24T04:23:28.761Z,-0.20
2018-03-24T04:25:56.348Z,-0.20
2018-03-24T04:28:24.735Z,-0.20
2018-03-24T04:30:52.346Z,-0.20
2018-03-24T04:33:19.914Z,-0.20
2018-03-24T04:35:47.526Z,-0.20
2018-03-24T04:38:15.102Z,-0.30
2018-03-24T04:40:42.884Z,-0.30
2018-03-24T04:43:10.453Z,-0.30
2018-03-24T04:45:38.059Z,-0.30
2018-03-24T04:48:05.669Z,-0.40
2018-03-24T04:50:34.022Z,-0.30
2018-03-24T04:53:02.389Z,-0.40
2018-03-24T04:55:29.970Z,-0.40
2018-03-24T04:57:57.573Z,-0.40
2018-03-24T05:00:38.981Z,-0.40
2018-03-24T05:03:06.589Z,-0.40
2018-03-24T05:05:34.931Z,-0.50
2018-03-24T05:08:02.594Z,-0.50
2018-03-24T05:10:30.942Z,-0.50
2018-03-24T05:12:58.549Z,-0.50
2018-03-24T05:15:26.159Z,-0.50
2018-03-24T05:17:53.739Z,-0.50
2018-03-24T05:20:21.350Z,-0.60
2018-03-24T05:22:49.698Z,-0.60
2018-03-24T05:25:17.301Z,-0.60
2018-03-24T05:27:44.882Z,-0.60
2018-03-24T05:30:12.494Z,-0.60
2018-03-24T05:32:40.106Z,-0.60
2018-03-24T05:35:08.454Z,-0.70
2018-03-24T05:37:36.070Z,-0.60
2018-03-24T05:40:04.233Z,-0.70
2018-03-24T05:42:31.907Z,-0.70
2018-03-24T05:44:59.487Z,-0.70
2018-03-24T05:47:27.100Z,-0.70
2018-03-24T05:49:54.705Z,-0.70
2018-03-24T05:52:22.278Z,-0.70
2018-03-24T05:54:49.882Z,-0.80
2018-03-24T05:57:17.467Z,-0.70
2018-03-24T05:59:45.079Z,-0.70
2018-03-24T06:02:13.422Z,-0.60
2018-03-24T06:04:41.025Z,-0.60
2018-03-24T06:07:08.613Z,-0.60
2018-03-24T06:09:36.222Z,-0.50
2018-03-24T06:12:03.827Z,-0.60
2018-03-24T06:14:32.203Z,-0.50
2018-03-24T06:16:59.810Z,-0.60
2018-03-24T06:19:28.150Z,-0.50
2018-03-24T06:21:55.754Z,-0.50
2018-03-24T06:24:23.334Z,-0.50
2018-03-24T06:26:50.958Z,-0.40
2018-03-24T06:29:18.534Z,-0.40
2018-03-24T06:31:47.826Z,-0.30
2018-03-24T06:34:15.430Z,-0.30
2018-03-24T06:36:43.071Z,-0.30
2018-03-24T06:39:11.414Z,-0.30
2018-03-24T06:41:39.028Z,-0.30
2018-03-24T06:44:06.602Z,-0.20
2018-03-24T06:46:35.210Z,-0.20
2018-03-24T06:49:02.790Z,-0.20
2018-03-24T06:51:30.521Z,-0.10
2018-03-24T06:53:58.107Z,-0.10
2018-03-24T06:56:25.717Z,0.00
2018-03-24T06:58:53.429Z,0.10
2018-03-24T07:01:21.124Z,0.20
2018-03-24T07:03:48.795Z,0.30
2018-03-24T07:06:16.367Z,0.40
2018-03-24T07:08:44.005Z,0.50
2018-03-24T07:11:11.582Z,0.60
2018-03-24T07:13:39.195Z,0.70
2018-03-24T07:16:06.798Z,0.80
2018-03-24T07:18:34.371Z,1.00
2018-03-24T07:21:03.569Z,1.20
2018-03-24T07:23:31.275Z,1.30
2018-03-24T07:26:16.222Z,1.40
2018-03-24T07:28:44.235Z,1.50
2018-03-24T07:31:12.608Z,1.80
2018-03-24T07:33:40.190Z,1.80
2018-03-24T07:36:07.790Z,1.90
2018-03-24T07:38:35.620Z,1.90
2018-03-24T07:41:03.201Z,2.00
2018-03-24T07:43:30.818Z,1.90
2018-03-24T07:45:58.735Z,1.90
2018-03-24T07:48:34.702Z,2.00
2018-03-24T07:51:02.278Z,2.00
2018-03-24T07:53:30.519Z,2.00
2018-03-24T07:55:58.120Z,2.00
2018-03-24T07:58:25.703Z,2.00
2018-03-24T08:00:53.362Z,2.00
2018-03-24T08:03:20.947Z,2.00
2018-03-24T08:05:48.542Z,2.10
2018-03-24T08:08:16.141Z,2.10
2018-03-24T08:10:44.487Z,2.30
2018-03-24T08:13:12.198Z,2.30
2018-03-24T08:15:40.550Z,2.60
2018-03-24T08:18:08.938Z,2.80
2018-03-24T08:20:36.515Z,2.80
2018-03-24T08:23:04.117Z,2.90
2018-03-24T08:25:31.934Z,3.00
2018-03-24T08:28:00.274Z,3.20
2018-03-24T08:30:27.929Z,3.20
2018-03-24T08:32:55.474Z,3.40
2018-03-24T08:35:23.072Z,3.60
2018-03-24T08:37:50.651Z,4.00
2018-03-24T08:40:18.258Z,4.30
2018-03-24T08:42:46.622Z,4.90
2018-03-24T08:45:14.200Z,4.80
2018-03-24T08:47:41.973Z,5.20
2018-03-24T08:50:09.581Z,5.30
2018-03-24T08:52:37.612Z,5.60
2018-03-24T08:55:05.954Z,6.20
2018-03-24T08:57:33.557Z,6.20
2018-03-24T09:00:01.139Z,6.40
2018-03-24T09:02:28.739Z,6.70
2018-03-24T09:04:56.354Z,6.90
2018-03-24T09:07:23.921Z,7.10
2018-03-24T09:09:51.521Z,7.30
2018-03-24T09:12:19.094Z,7.50
2018-03-24T09:14:46.705Z,7.60
2018-03-24T09:17:14.275Z,7.70
2018-03-24T09:19:41.878Z,7.70
2018-03-24T09:22:10.253Z,7.80
2018-03-24T09:24:38.618Z,8.00
2018-03-24T09:27:06.333Z,7.90
2018-03-24T09:29:33.942Z,8.00
2018-03-24T09:32:01.514Z,8.10
2018-03-24T09:34:29.118Z,8.20
2018-03-24T09:36:56.714Z,8.10
2018-03-24T09:39:24.321Z,8.10
2018-03-24T09:41:52.666Z,8.10
2018-03-24T09:44:20.270Z,8.20
2018-03-24T09:46:47.875Z,8.00
2018-03-24T09:49:15.450Z,7.90
2018-03-24T09:51:43.054Z,7.90
2018-03-24T09:54:10.630Z,7.80
2018-03-24T09:56:38.242Z,8.00
2018-03-24T09:59:06.573Z,8.00
2018-03-24T10:01:34.171Z,8.00
2018-03-24T10:04:01.742Z,8.20
2018-03-24T10:06:29.344Z,8.30
2018-03-24T10:08:56.917Z,8.40
2018-03-24T10:11:24.517Z,8.40
2018-03-24T10:13:52.149Z,8.30
2018-03-24T10:16:20.510Z,8.40
2018-03-24T10:18:48.078Z,8.40
2018-03-24T10:24:27.250Z,8.20
2018-03-24T10:26:55.887Z,8.20
2018-03-24T10:29:23.478Z,8.20
2018-03-24T10:31:51.048Z,8.10
2018-03-24T10:34:18.642Z,8.00
2018-03-24T10:36:46.210Z,8.10
2018-03-24T10:39:13.805Z,8.30
2018-03-24T10:41:41.365Z,8.50
2018-03-24T10:44:08.967Z,8.70
2018-03-24T10:46:36.534Z,8.70
2018-03-24T10:49:04.898Z,8.80
2018-03-24T10:51:32.491Z,8.80
2018-03-24T10:54:05.553Z,8.70
2018-03-24T10:56:33.934Z,8.70
2018-03-24T10:59:01.497Z,8.60
2018-03-24T11:01:29.091Z,8.60
2018-03-24T11:03:58.009Z,8.50
2018-03-24T11:06:25.597Z,8.50
2018-03-24T11:08:53.162Z,8.40
2018-03-24T11:11:21.567Z,8.20
2018-03-24T11:13:49.127Z,8.20
2018-03-24T11:16:16.733Z,8.10
2018-03-24T11:18:44.299Z,8.00
2018-03-24T11:21:11.903Z,8.00
2018-03-24T11:23:39.499Z,7.90
2018-03-24T11:26:07.842Z,8.20
2018-03-24T11:28:35.443Z,8.20
2018-03-24T11:31:03.028Z,8.50
2018-03-24T11:33:30.654Z,8.60
2018-03-24T11:35:58.988Z,8.60
2018-03-24T11:38:26.585Z,8.60
2018-03-24T11:40:54.190Z,8.60
2018-03-24T11:43:21.766Z,8.50
2018-03-24T11:45:49.367Z,8.40
2018-03-24T11:48:16.933Z,8.40
2018-03-24T11:50:44.531Z,8.50
2018-03-24T11:53:14.890Z,8.60
2018-03-24T11:55:42.486Z,9.00
2018-03-24T11:58:10.602Z,9.30
2018-03-24T12:00:38.203Z,9.70
2018-03-24T12:03:13.558Z,10.00
2018-03-24T12:05:41.888Z,10.30
2018-03-24T12:08:09.515Z,10.60
2018-03-24T12:10:37.863Z,11.00
2018-03-24T12:13:10.142Z,11.20
2018-03-24T12:15:39.112Z,11.50
2018-03-24T12:18:27.257Z,11.40
2018-03-24T12:20:55.059Z,11.50
2018-03-24T12:23:22.902Z,11.40
2018-03-24T12:25:51.673Z,11.00
2018-03-24T12:28:20.223Z,11.00
2018-03-24T12:30:48.008Z,11.00
2018-03-24T12:33:16.609Z,10.90
2018-03-24T12:35:44.376Z,10.90
2018-03-24T12:38:13.137Z,11.10
2018-03-24T12:40:41.041Z,11.10
2018-03-24T12:43:08.795Z,10.90
2018-03-24T12:45:37.282Z,10.80
2018-03-24T12:48:05.968Z,10.40
2018-03-24T12:50:35.659Z,10.20
2018-03-24T12:53:07.572Z,10.10
2018-03-24T12:55:45.497Z,9.90
2018-03-24T12:58:13.282Z,9.70
2018-03-24T13:00:42.350Z,9.50
2018-03-24T13:03:10.182Z,9.50
2018-03-24T13:05:37.951Z,9.40
2018-03-24T13:08:05.798Z,9.40
2018-03-24T13:10:33.585Z,9.70
2018-03-24T13:13:02.319Z,10.10
2018-03-24T13:24:22.294Z,10.10
2018-03-24T13:26:50.898Z,10.60
2018-03-24T13:29:19.476Z,10.90
2018-03-24T13:31:47.281Z,10.90
2018-03-24T13:34:14.885Z,11.10
2018-03-24T13:36:43.307Z,11.40
2018-03-24T13:39:11.535Z,11.50
2018-03-24T13:41:41.072Z,11.50
2018-03-24T13:44:15.136Z,11.50
2018-03-24T13:46:43.346Z,11.40
2018-03-24T13:49:10.946Z,11.40
2018-03-24T13:51:39.294Z,11.30
2018-03-24T13:54:08.152Z,11.40
2018-03-24T13:56:36.288Z,11.40
2018-03-24T13:59:04.069Z,11.40
2018-03-24T14:01:32.598Z,11.50
2018-03-24T14:04:02.796Z,11.50
2018-03-24T14:06:30.616Z,11.60
2018-03-24T14:08:58.365Z,11.70
2018-03-24T14:11:27.304Z,11.80
2018-03-24T14:13:55.210Z,11.80
2018-03-24T14:16:23.296Z,11.80
2018-03-24T14:18:50.899Z,11.80
2018-03-24T14:21:18.507Z,11.80
2018-03-24T14:23:46.080Z,11.90
2018-03-24T14:26:13.702Z,11.90
2018-03-24T14:28:41.294Z,12.00
2018-03-24T14:34:09.349Z,12.10
2018-03-24T14:36:36.945Z,12.10
2018-03-24T14:39:05.665Z,12.20
2018-03-24T14:41:33.821Z,12.10
2018-03-24T14:44:01.772Z,12.10
2018-03-24T14:46:29.497Z,12.10
2018-03-24T14:48:57.261Z,12.00
2018-03-24T14:51:25.017Z,11.90
2018-03-24T14:53:52.734Z,11.90
2018-03-24T14:56:20.698Z,11.90
2018-03-24T14:58:48.441Z,11.90
2018-03-24T15:01:16.138Z,11.90
2018-03-24T15:03:43.911Z,11.90
2018-03-24T15:06:12.651Z,11.80
2018-03-24T15:08:40.990Z,11.80
2018-03-24T15:11:08.844Z,11.80
2018-03-24T15:13:37.189Z,11.90
2018-03-24T15:16:05.070Z,11.80
2018-03-24T15:18:33.446Z,11.80
2018-03-24T15:21:01.241Z,11.80
2018-03-24T15:23:29.105Z,11.80
2018-03-24T15:25:57.012Z,11.70
2018-03-24T15:28:25.653Z,11.70
2018-03-24T15:31:05.571Z,11.60
2018-03-24T15:33:45.174Z,11.70
2018-03-24T15:36:25.038Z,11.70
2018-03-24T15:38:53.459Z,11.80
2018-03-24T15:41:39.343Z,11.70
2018-03-24T15:44:07.132Z,11.50
2018-03-24T15:46:34.996Z,11.40
2018-03-24T15:49:03.812Z,11.30
2018-03-24T15:51:43.599Z,11.30
2018-03-24T15:54:11.408Z,11.30
2018-03-24T15:56:40.055Z,11.30
2018-03-24T15:59:07.907Z,11.30
2018-03-24T16:04:31.569Z,11.20
2018-03-24T16:06:59.689Z,11.20
2018-03-24T16:09:28.635Z,11.00
2018-03-24T16:11:56.280Z,10.90
2018-03-24T16:14:26.687Z,10.70
2018-03-24T16:17:13.860Z,10.60
2018-03-24T16:19:41.888Z,10.60
2018-03-24T16:22:09.953Z,10.50
2018-03-24T16:24:38.586Z,10.30
2018-03-24T16:27:06.403Z,10.30
2018-03-24T16:29:34.260Z,10.20
2018-03-24T16:32:02.083Z,10.20
2018-03-24T16:34:30.707Z,10.00
2018-03-24T16:36:58.589Z,10.00
2018-03-24T16:39:26.394Z,9.90
2018-03-24T16:41:54.273Z,9.70
2018-03-24T16:44:22.087Z,9.70
2018-03-24T16:46:49.980Z,9.60
2018-03-24T16:49:18.633Z,9.30
2018-03-24T16:51:46.405Z,9.30
2018-03-24T16:54:15.051Z,9.10
2018-03-24T16:56:44.431Z,9.00
2018-03-24T16:59:12.285Z,8.90
2018-03-24T17:01:40.061Z,8.90
2018-03-24T17:04:07.911Z,8.70
2018-03-24T17:06:36.529Z,8.50
2018-03-24T17:09:05.208Z,8.40
2018-03-24T17:11:33.392Z,8.30
2018-03-24T17:14:02.063Z,8.10
2018-03-24T17:25:10.203Z,7.70
2018-03-24T17:27:38.131Z,7.60
2018-03-24T17:30:06.585Z,7.40
2018-03-24T17:32:35.078Z,7.40
2018-03-24T17:35:03.136Z,7.20
2018-03-24T17:37:51.643Z,7.10
2018-03-24T17:40:34.152Z,7.00
2018-03-24T17:43:02.181Z,6.90
2018-03-24T17:45:30.687Z,6.80
2018-03-24T17:47:58.611Z,6.70
2018-03-24T17:50:26.528Z,6.60
2018-03-24T17:52:54.441Z,6.60
2018-03-24T17:55:22.301Z,6.50
2018-03-24T17:57:50.279Z,6.30
2018-03-24T18:00:18.199Z,6.20
2018-03-24T18:02:46.132Z,6.10
2018-03-24T18:05:13.835Z,5.90
2018-03-24T18:07:42.226Z,5.70
2018-03-24T18:10:10.655Z,5.60
2018-03-24T18:18:27.790Z,5.40
2018-03-24T18:20:55.442Z,5.30
2018-03-24T18:23:23.125Z,5.20
2018-03-24T18:25:50.768Z,5.10
2018-03-24T18:28:18.416Z,5.00
2018-03-24T18:30:46.839Z,4.80
2018-03-24T18:33:14.499Z,4.80
2018-03-24T18:35:42.140Z,4.80
2018-03-24T18:38:09.979Z,4.70
2018-03-24T18:40:37.644Z,4.60
2018-03-24T18:43:05.267Z,4.50
2018-03-24T18:45:34.149Z,4.50
2018-03-24T18:48:01.879Z,4.40
2018-03-24T18:50:29.494Z,4.40
2018-03-24T18:52:57.890Z,4.40
2018-03-24T18:55:25.547Z,4.40
2018-03-24T18:57:53.182Z,4.40
2018-03-24T19:00:20.859Z,4.40
2018-03-24T19:02:49.267Z,4.40
2018-03-24T19:05:17.716Z,4.40
2018-03-24T19:07:45.322Z,4.40
2018-03-24T19:10:13.031Z,4.40
2018-03-24T19:12:40.687Z,4.40
2018-03-24T19:15:08.319Z,4.40
2018-03-24T19:17:35.951Z,4.40
2018-03-24T19:20:03.680Z,4.40
2018-03-24T19:22:31.359Z,4.40
2018-03-24T19:24:59.017Z,4.40
2018-03-24T19:27:26.727Z,4.40
2018-03-24T19:29:54.401Z,4.40
2018-03-24T19:32:22.252Z,4.30
2018-03-24T19:34:50.938Z,4.20
2018-03-24T19:37:19.249Z,4.20
2018-03-24T19:39:47.210Z,4.10
2018-03-24T19:42:16.483Z,3.90
2018-03-24T19:44:44.197Z,3.90
2018-03-24T19:47:11.851Z,3.80
2018-03-24T19:49:39.503Z,3.70
2018-03-24T19:52:07.905Z,3.60
2018-03-24T19:54:36.405Z,3.60
2018-03-24T19:57:04.587Z,3.50
2018-03-24T19:59:32.318Z,3.50
2018-03-24T20:01:59.980Z,3.50
2018-03-24T20:04:27.600Z,3.40
2018-03-24T20:06:55.255Z,3.30
2018-03-24T20:09:22.876Z,3.30
2018-03-24T20:11:50.535Z,3.20
2018-03-24T20:14:18.211Z,3.10
2018-03-24T20:16:45.853Z,3.00
2018-03-24T20:19:13.491Z,2.90
2018-03-24T20:21:41.127Z,2.80
2018-03-24T20:24:08.805Z,2.80
2018-03-24T20:26:36.496Z,2.70
2018-03-24T20:29:04.152Z,2.60
2018-03-24T20:31:31.856Z,2.50
2018-03-24T20:34:00.291Z,2.50
2018-03-24T20:36:27.946Z,2.40
2018-03-24T20:38:56.387Z,2.40
2018-03-24T20:41:24.047Z,2.30
2018-03-24T20:43:52.529Z,2.30
2018-03-24T20:46:20.179Z,2.30
2018-03-24T20:48:47.831Z,2.20
2018-03-24T20:51:15.548Z,2.20
2018-03-24T20:53:43.196Z,2.20
2018-03-24T20:56:11.819Z,2.20
2018-03-24T20:58:40.208Z,2.30
2018-03-24T21:01:08.814Z,2.30
2018-03-24T21:03:37.224Z,2.30
2018-03-24T21:06:05.636Z,2.20
2018-03-24T21:08:33.326Z,2.20
2018-03-24T21:11:00.946Z,2.20
2018-03-24T21:13:28.695Z,2.10
2018-03-24T21:15:57.101Z,2.10
2018-03-24T21:18:25.694Z,2.10
2018-03-24T21:20:54.135Z,2.10
2018-03-24T21:23:21.793Z,2.10
2018-03-24T21:25:50.221Z,2.00
2018-03-24T21:28:17.883Z,2.00
2018-03-24T21:30:46.404Z,1.90
2018-03-24T21:33:14.134Z,1.90
2018-03-24T21:35:41.763Z,1.80
2018-03-24T21:38:09.440Z,1.70
2018-03-24T21:40:37.612Z,1.70
2018-03-24T21:43:05.250Z,1.60
2018-03-24T21:45:32.955Z,1.60
2018-03-24T21:48:01.342Z,1.60
2018-03-24T21:50:35.675Z,1.60
2018-03-24T21:53:03.444Z,1.60
2018-03-24T21:55:31.047Z,1.60
2018-03-24T21:57:58.715Z,1.50
2018-03-24T22:00:26.351Z,1.40
2018-03-24T22:02:54.012Z,1.40
2018-03-24T22:05:21.702Z,1.30
2018-03-24T22:07:49.364Z,1.30
2018-03-24T22:10:17.009Z,1.20
2018-03-24T22:12:46.167Z,1.10
2018-03-24T22:15:13.875Z,1.10
2018-03-24T22:17:41.532Z,1.10
2018-03-24T22:20:09.223Z,1.00
2018-03-24T22:22:37.663Z,0.90
2018-03-24T22:25:05.334Z,0.90
2018-03-24T22:27:33.756Z,0.80
2018-03-24T22:30:01.392Z,0.80
2018-03-24T22:32:29.075Z,0.80
2018-03-24T22:34:56.729Z,0.70
2018-03-24T22:37:24.547Z,0.70
2018-03-24T22:39:52.240Z,0.70
2018-03-24T22:42:19.851Z,0.70
2018-03-24T22:44:47.518Z,0.60
2018-03-24T22:47:15.179Z,0.60
2018-03-24T22:49:42.836Z,0.50
2018-03-24T22:52:11.293Z,0.50
2018-03-24T22:54:38.922Z,0.40
2018-03-24T22:57:07.360Z,0.40
2018-03-24T22:59:35.026Z,0.40
2018-03-24T23:02:03.493Z,0.30
2018-03-24T23:04:31.156Z,0.30
2018-03-24T23:06:58.785Z,0.20
2018-03-24T23:09:26.471Z,0.20
2018-03-24T23:11:54.191Z,0.10
2018-03-24T23:14:21.811Z,0.10
2018-03-24T23:16:49.479Z,0.10
2018-03-24T23:19:17.122Z,0.10
2018-03-24T23:21:45.575Z,0.00
2018-03-24T23:24:13.186Z,0.00
2018-03-24T23:26:40.839Z,0.00
2018-03-24T23:29:08.519Z,0.00
2018-03-24T23:31:36.227Z,-0.10
2018-03-24T23:34:04.004Z,-0.10
2018-03-24T23:36:31.643Z,-0.10
2018-03-24T23:38:59.337Z,-0.10
2018-03-24T23:41:27.057Z,-0.10
2018-03-24T23:43:55.502Z,-0.20
2018-03-24T23:46:23.150Z,-0.20
2018-03-24T23:48:50.826Z,-0.20
2018-03-24T23:51:18.447Z,-0.20
2018-03-24T23:53:46.107Z,-0.30
2018-03-24T23:56:13.743Z,-0.30
2018-03-24T23:58:41.439Z,-0.30
